createdAt,value
2018-12-27T00:00:24.173Z,3.45
2018-12-27T00:02:56.451Z,3.45
2018-12-27T00:05:25.241Z,3.44
2018-12-27T00:07:54.042Z,3.45
2018-12-27T00:10:22.823Z,3.45
2018-12-27T00:12:51.723Z,3.45
2018-12-27T00:15:22.727Z,3.43
2018-12-27T00:17:51.633Z,3.42
2018-12-27T00:20:21.351Z,3.42
2018-12-27T00:22:50.139Z,3.41
2018-12-27T00:25:20.538Z,3.40
2018-12-27T00:27:49.227Z,3.40
2018-12-27T00:30:24.859Z,3.38
2018-12-27T00:32:54.473Z,3.39
2018-12-27T00:35:23.252Z,3.38
2018-12-27T00:37:52.842Z,3.37
2018-12-27T00:40:22.409Z,3.36
2018-12-27T00:42:51.887Z,3.34
2018-12-27T00:45:20.786Z,3.30
2018-12-27T00:47:49.686Z,3.31
2018-12-27T00:50:18.460Z,3.29
2018-12-27T00:52:47.268Z,3.29
2018-12-27T00:55:16.089Z,3.29
2018-12-27T00:57:44.907Z,3.27
2018-12-27T01:00:13.699Z,3.26
2018-12-27T01:02:42.560Z,3.27
2018-12-27T01:05:11.352Z,3.26
2018-12-27T01:07:40.134Z,3.26
2018-12-27T01:10:08.923Z,3.22
2018-12-27T01:12:38.856Z,3.21
2018-12-27T01:15:07.656Z,3.21
2018-12-27T01:17:36.468Z,3.20
2018-12-27T01:20:05.261Z,3.19
2018-12-27T01:22:34.084Z,3.17
2018-12-27T01:25:03.455Z,3.17
2018-12-27T01:27:33.370Z,3.15
2018-12-27T01:30:02.149Z,3.11
2018-12-27T01:32:30.943Z,3.07
2018-12-27T01:34:59.736Z,3.03
2018-12-27T01:37:28.519Z,2.97
2018-12-27T01:39:58.138Z,2.92
2018-12-27T01:42:27.015Z,2.89
2018-12-27T01:44:55.771Z,2.84
2018-12-27T01:47:24.584Z,2.80
2018-12-27T01:49:53.379Z,2.75
2018-12-27T01:52:22.161Z,2.70
2018-12-27T01:54:50.949Z,2.66
2018-12-27T01:57:19.735Z,2.62
2018-12-27T01:59:48.523Z,2.56
2018-12-27T02:02:17.315Z,2.51
2018-12-27T02:04:46.636Z,2.48
2018-12-27T02:07:15.454Z,2.45
2018-12-27T02:09:44.243Z,2.41
2018-12-27T02:12:13.040Z,2.38
2018-12-27T02:14:41.876Z,2.34
2018-12-27T02:17:10.660Z,2.30
2018-12-27T02:19:39.449Z,2.23
2018-12-27T02:22:08.219Z,2.16
2018-12-27T02:24:37.754Z,2.11
2018-12-27T02:27:07.612Z,2.09
2018-12-27T02:29:36.342Z,2.06
2018-12-27T02:32:05.134Z,2.04
2018-12-27T02:34:34.655Z,2.03
2018-12-27T02:37:03.576Z,1.98
2018-12-27T02:39:32.377Z,1.92
2018-12-27T02:42:01.162Z,1.88
2018-12-27T02:44:29.975Z,1.85
2018-12-27T02:46:58.780Z,1.82
2018-12-27T02:49:27.554Z,1.80
2018-12-27T02:51:56.347Z,1.79
2018-12-27T02:54:25.127Z,1.79
2018-12-27T02:56:53.935Z,1.80
2018-12-27T02:59:23.627Z,1.80
2018-12-27T03:01:52.420Z,1.80
2018-12-27T03:04:22.275Z,1.79
2018-12-27T03:06:51.060Z,1.79
2018-12-27T03:09:19.880Z,1.79
2018-12-27T03:11:48.655Z,1.77
2018-12-27T03:14:17.991Z,1.75
2018-12-27T03:16:46.767Z,1.72
2018-12-27T03:19:15.562Z,1.68
2018-12-27T03:21:46.080Z,1.66
2018-12-27T03:24:14.872Z,1.60
2018-12-27T03:26:43.682Z,1.54
2018-12-27T03:29:12.509Z,1.48
2018-12-27T03:31:41.326Z,1.46
2018-12-27T03:34:10.412Z,1.44
2018-12-27T03:36:39.201Z,1.42
2018-12-27T03:39:07.984Z,1.41
2018-12-27T03:41:36.818Z,1.41
2018-12-27T03:44:05.605Z,1.40
2018-12-27T03:46:34.378Z,1.38
2018-12-27T03:49:03.182Z,1.35
2018-12-27T03:51:32.819Z,1.35
2018-12-27T03:54:01.635Z,1.35
2018-12-27T03:56:31.383Z,1.34
2018-12-27T03:59:00.635Z,1.32
2018-12-27T04:01:29.416Z,1.31
2018-12-27T04:04:01.590Z,1.32
2018-12-27T04:06:27.875Z,1.31
2018-12-27T04:08:58.358Z,1.31
2018-12-27T04:11:27.169Z,1.27
2018-12-27T04:13:55.959Z,1.26
2018-12-27T04:16:24.729Z,1.22
2018-12-27T04:18:53.611Z,1.19
2018-12-27T04:21:22.675Z,1.13
2018-12-27T04:23:52.308Z,1.09
2018-12-27T04:26:21.563Z,1.07
2018-12-27T04:28:50.405Z,1.04
2018-12-27T04:31:19.659Z,1.02
2018-12-27T04:33:48.477Z,0.99
2018-12-27T04:36:17.285Z,0.98
2018-12-27T04:38:46.122Z,0.95
2018-12-27T04:41:15.462Z,0.94
2018-12-27T04:43:44.395Z,0.91
2018-12-27T04:46:13.168Z,0.87
2018-12-27T04:48:41.975Z,0.83
2018-12-27T04:51:10.768Z,0.82
2018-12-27T04:53:40.546Z,0.81
2018-12-27T04:56:09.328Z,0.78
2018-12-27T04:58:38.244Z,0.76
2018-12-27T05:01:07.697Z,0.75
2018-12-27T05:03:36.509Z,0.73
2018-12-27T05:06:11.664Z,0.72
2018-12-27T05:08:40.507Z,0.72
2018-12-27T05:11:10.294Z,0.71
2018-12-27T05:13:39.750Z,0.71
2018-12-27T05:16:09.346Z,0.72
2018-12-27T05:18:38.242Z,0.73
2018-12-27T05:21:07.123Z,0.73
2018-12-27T05:23:36.207Z,0.74
2018-12-27T05:26:05.551Z,0.74
2018-12-27T05:28:34.404Z,0.75
2018-12-27T05:31:04.436Z,0.76
2018-12-27T05:33:35.130Z,0.77
2018-12-27T05:36:03.893Z,0.77
2018-12-27T05:38:32.699Z,0.79
2018-12-27T05:41:01.485Z,0.80
2018-12-27T05:43:30.308Z,0.80
2018-12-27T05:45:59.207Z,0.81
2018-12-27T05:48:28.037Z,0.81
2018-12-27T05:50:56.887Z,0.81
2018-12-27T05:53:25.714Z,0.80
2018-12-27T05:55:54.554Z,0.79
2018-12-27T05:58:23.402Z,0.79
2018-12-27T06:00:52.204Z,0.77
2018-12-27T06:03:21.051Z,0.74
2018-12-27T06:05:50.200Z,0.74
2018-12-27T06:08:18.987Z,0.74
2018-12-27T06:10:47.864Z,0.72
2018-12-27T06:13:18.584Z,0.72
2018-12-27T06:15:47.427Z,0.72
2018-12-27T06:18:16.318Z,0.74
2018-12-27T06:20:45.119Z,0.74
2018-12-27T06:23:14.451Z,0.73
2018-12-27T06:25:43.244Z,0.71
2018-12-27T06:28:12.024Z,0.71
2018-12-27T06:30:40.819Z,0.73
2018-12-27T06:33:10.762Z,0.75
2018-12-27T06:35:40.335Z,0.77
2018-12-27T06:38:09.123Z,0.78
2018-12-27T06:40:39.076Z,0.79
2018-12-27T06:43:07.952Z,0.81
2018-12-27T06:45:36.838Z,0.83
2018-12-27T06:48:07.008Z,0.81
2018-12-27T06:50:35.883Z,0.81
2018-12-27T06:53:04.675Z,0.81
2018-12-27T06:55:34.731Z,0.81
2018-12-27T06:58:03.563Z,0.81
2018-12-27T07:00:32.877Z,0.79
2018-12-27T07:03:01.750Z,0.75
2018-12-27T07:05:30.691Z,0.72
2018-12-27T07:08:00.838Z,0.69
2018-12-27T07:10:29.830Z,0.70
2018-12-27T07:12:58.615Z,0.71
2018-12-27T07:15:28.073Z,0.73
2018-12-27T07:17:57.514Z,0.74
2018-12-27T07:20:26.576Z,0.76
2018-12-27T07:22:55.424Z,0.76
2018-12-27T07:25:25.016Z,0.75
2018-12-27T07:27:53.882Z,0.75
2018-12-27T07:30:22.685Z,0.76
2018-12-27T07:32:51.479Z,0.80
2018-12-27T07:35:21.268Z,0.85
2018-12-27T07:37:50.047Z,0.87
2018-12-27T07:40:18.895Z,0.92
2018-12-27T07:42:47.960Z,0.97
2018-12-27T07:45:17.287Z,1.01
2018-12-27T07:47:47.243Z,1.06
2018-12-27T07:50:16.223Z,1.09
2018-12-27T07:52:45.066Z,1.14
2018-12-27T07:55:13.850Z,1.17
2018-12-27T07:57:43.759Z,1.16
2018-12-27T08:00:12.583Z,1.14
2018-12-27T08:02:41.367Z,1.17
2018-12-27T08:05:10.819Z,1.20
2018-12-27T08:07:39.621Z,1.19
2018-12-27T08:10:08.416Z,1.12
2018-12-27T08:12:37.720Z,1.13
2018-12-27T08:15:07.093Z,1.19
2018-12-27T08:17:35.879Z,1.24
2018-12-27T08:20:04.783Z,1.26
2018-12-27T08:22:33.623Z,1.28
2018-12-27T08:25:03.147Z,1.34
2018-12-27T08:27:32.602Z,1.38
2018-12-27T08:30:01.383Z,1.43
2018-12-27T08:32:31.649Z,1.50
2018-12-27T08:35:01.160Z,1.56
2018-12-27T08:37:29.994Z,1.55
2018-12-27T08:39:59.151Z,1.57
2018-12-27T08:42:28.073Z,1.62
2018-12-27T08:44:57.988Z,1.65
2018-12-27T08:47:26.775Z,1.71
2018-12-27T08:49:55.627Z,1.81
2018-12-27T08:52:24.461Z,1.89
2018-12-27T08:54:53.240Z,1.92
2018-12-27T08:57:22.028Z,1.92
2018-12-27T08:59:51.411Z,1.96
2018-12-27T09:02:20.303Z,1.98
2018-12-27T09:04:49.620Z,2.05
2018-12-27T09:07:18.443Z,2.13
2018-12-27T09:09:47.832Z,2.17
2018-12-27T09:12:16.679Z,2.27
2018-12-27T09:14:45.633Z,2.37
2018-12-27T09:17:14.489Z,2.48
2018-12-27T09:19:43.277Z,2.62
2018-12-27T09:22:12.071Z,2.74
2018-12-27T09:24:40.911Z,2.85
2018-12-27T09:27:10.423Z,2.94
2018-12-27T09:29:39.326Z,3.00
2018-12-27T09:32:08.244Z,3.08
2018-12-27T09:34:37.793Z,3.14
2018-12-27T09:37:06.581Z,3.20
2018-12-27T09:39:35.424Z,3.28
2018-12-27T09:42:05.223Z,3.36
2018-12-27T09:44:35.370Z,3.43
2018-12-27T09:47:04.255Z,3.51
2018-12-27T09:49:37.087Z,3.61
2018-12-27T09:52:05.835Z,3.68
2018-12-27T09:54:35.592Z,3.76
2018-12-27T09:57:04.432Z,3.83
2018-12-27T09:59:33.285Z,3.91
2018-12-27T10:02:02.141Z,4.01
2018-12-27T10:04:32.447Z,4.07
2018-12-27T10:07:02.295Z,4.08
2018-12-27T10:09:32.792Z,4.03
2018-12-27T10:12:02.397Z,4.03
2018-12-27T10:14:31.235Z,4.02
2018-12-27T10:17:00.061Z,4.00
2018-12-27T10:19:29.084Z,4.00
2018-12-27T10:21:57.839Z,3.97
2018-12-27T10:24:27.820Z,3.96
2018-12-27T10:26:56.716Z,3.93
2018-12-27T10:29:25.482Z,3.93
2018-12-27T10:31:54.962Z,3.96
2018-12-27T10:34:23.795Z,3.97
2018-12-27T10:36:52.583Z,4.08
2018-12-27T10:39:21.375Z,4.30
2018-12-27T10:41:50.977Z,4.50
2018-12-27T10:44:19.864Z,4.70
2018-12-27T10:46:48.655Z,4.91
2018-12-27T10:49:17.554Z,5.11
2018-12-27T10:51:46.455Z,5.33
2018-12-27T10:54:15.237Z,5.53
2018-12-27T10:56:44.091Z,5.65
2018-12-27T10:59:12.899Z,5.79
2018-12-27T11:01:41.684Z,5.95
2018-12-27T11:04:11.339Z,6.14
2018-12-27T11:06:40.879Z,6.32
2018-12-27T11:09:09.794Z,6.48
2018-12-27T11:11:38.618Z,6.66
2018-12-27T11:14:08.571Z,6.83
2018-12-27T11:16:38.670Z,6.96
2018-12-27T11:19:07.551Z,6.95
2018-12-27T11:21:37.097Z,7.03
2018-12-27T11:24:06.537Z,7.22
2018-12-27T11:26:36.403Z,7.42
2018-12-27T11:29:05.257Z,7.62
2018-12-27T11:31:34.212Z,7.81
2018-12-27T11:34:03.017Z,7.98
2018-12-27T11:36:31.916Z,8.20
2018-12-27T11:39:00.740Z,8.32
2018-12-27T11:41:29.576Z,8.44
2018-12-27T11:43:58.372Z,8.51
2018-12-27T11:46:27.665Z,8.51
2018-12-27T11:48:56.513Z,8.24
2018-12-27T11:51:25.863Z,8.09
2018-12-27T11:53:54.651Z,7.92
2018-12-27T11:56:23.522Z,7.78
2018-12-27T11:58:53.446Z,7.70
2018-12-27T12:01:22.988Z,7.63
2018-12-27T12:03:53.216Z,7.55
2018-12-27T12:06:22.708Z,7.51
2018-12-27T12:08:51.555Z,7.48
2018-12-27T12:11:21.375Z,7.45
2018-12-27T12:13:51.082Z,7.40
2018-12-27T12:16:20.037Z,7.35
2018-12-27T12:18:48.807Z,7.31
2018-12-27T12:21:17.720Z,7.30
2018-12-27T12:23:46.507Z,7.30
2018-12-27T12:26:15.479Z,7.33
2018-12-27T12:28:44.259Z,7.32
2018-12-27T12:31:13.104Z,7.36
2018-12-27T12:33:41.911Z,7.37
2018-12-27T12:36:11.132Z,7.39
2018-12-27T12:38:39.515Z,7.38
2018-12-27T12:41:08.386Z,7.39
2018-12-27T12:43:37.249Z,7.35
2018-12-27T12:46:06.083Z,7.35
2018-12-27T12:48:34.926Z,7.36
2018-12-27T12:51:04.570Z,7.35
2018-12-27T12:53:33.363Z,7.32
2018-12-27T12:56:02.584Z,7.33
2018-12-27T12:58:31.504Z,7.36
2018-12-27T13:01:00.283Z,7.38
2018-12-27T13:03:29.092Z,7.32
2018-12-27T13:05:59.027Z,7.25
2018-12-27T13:08:29.154Z,7.18
2018-12-27T13:10:57.931Z,7.21
2018-12-27T13:13:26.755Z,7.28
2018-12-27T13:15:56.491Z,7.34
2018-12-27T13:18:25.316Z,7.43
2018-12-27T13:20:54.114Z,7.49
2018-12-27T13:23:22.893Z,7.52
2018-12-27T13:25:52.643Z,7.60
2018-12-27T13:28:21.426Z,7.68
2018-12-27T13:30:50.208Z,7.69
2018-12-27T13:33:19.035Z,7.63
2018-12-27T13:35:48.957Z,7.50
2018-12-27T13:38:17.733Z,7.36
2018-12-27T13:40:47.750Z,7.23
2018-12-27T13:43:16.578Z,7.15
2018-12-27T13:45:45.397Z,7.11
2018-12-27T13:48:14.272Z,7.05
2018-12-27T13:50:44.241Z,7.01
2018-12-27T13:53:13.052Z,7.00
2018-12-27T13:55:42.588Z,6.96
2018-12-27T13:58:13.434Z,6.94
2018-12-27T14:00:42.210Z,6.88
2018-12-27T14:03:11.003Z,6.87
2018-12-27T14:05:39.947Z,6.86
2018-12-27T14:08:08.743Z,6.84
2018-12-27T14:10:37.564Z,6.81
2018-12-27T14:13:06.410Z,6.82
2018-12-27T14:15:35.263Z,6.82
2018-12-27T14:18:04.189Z,6.79
2018-12-27T14:20:33.846Z,6.74
2018-12-27T14:23:03.034Z,6.68
2018-12-27T14:25:31.891Z,6.67
2018-12-27T14:28:00.775Z,6.63
2018-12-27T14:30:30.177Z,6.61
2018-12-27T14:32:59.302Z,6.56
2018-12-27T14:35:28.174Z,6.50
2018-12-27T14:37:57.012Z,6.45
2018-12-27T14:40:27.617Z,6.39
2018-12-27T14:42:56.523Z,6.34
2018-12-27T14:45:25.312Z,6.30
2018-12-27T14:47:54.672Z,6.28
2018-12-27T14:50:24.518Z,6.24
2018-12-27T14:52:53.300Z,6.22
2018-12-27T14:55:22.231Z,6.19
2018-12-27T14:57:51.019Z,6.16
2018-12-27T15:00:19.848Z,6.14
2018-12-27T15:02:48.639Z,6.10
2018-12-27T15:05:18.492Z,6.06
2018-12-27T15:07:47.261Z,6.03
2018-12-27T15:10:16.073Z,5.98
2018-12-27T15:12:46.323Z,5.93
2018-12-27T15:15:15.218Z,5.90
2018-12-27T15:17:44.031Z,5.86
2018-12-27T15:20:12.912Z,5.83
2018-12-27T15:22:42.364Z,5.78
2018-12-27T15:25:11.200Z,5.77
2018-12-27T15:27:40.036Z,5.72
2018-12-27T15:30:08.879Z,5.67
2018-12-27T15:32:37.678Z,5.61
2018-12-27T15:35:06.614Z,5.56
2018-12-27T15:37:35.385Z,5.51
2018-12-27T15:40:05.703Z,5.49
2018-12-27T15:42:33.217Z,5.44
2018-12-27T15:45:03.467Z,5.41
2018-12-27T15:47:32.364Z,5.35
2018-12-27T15:50:02.214Z,5.27
2018-12-27T15:52:31.029Z,5.23
2018-12-27T15:54:59.806Z,5.20
2018-12-27T15:57:29.087Z,5.15
2018-12-27T15:59:57.852Z,5.11
2018-12-27T16:02:26.691Z,5.10
2018-12-27T16:04:55.582Z,5.07
2018-12-27T16:07:24.390Z,5.01
2018-12-27T16:09:54.158Z,4.91
2018-12-27T16:12:23.567Z,4.78
2018-12-27T16:14:52.363Z,4.69
2018-12-27T16:17:21.205Z,4.62
2018-12-27T16:19:51.231Z,4.80
2018-12-27T16:22:20.169Z,4.67
2018-12-27T16:24:49.724Z,4.63
2018-12-27T16:27:18.567Z,4.59
2018-12-27T16:29:47.997Z,4.56
2018-12-27T16:32:23.517Z,4.48
2018-12-27T16:34:52.346Z,4.40
2018-12-27T16:37:21.635Z,4.36
2018-12-27T16:39:50.666Z,4.33
2018-12-27T16:42:22.037Z,4.31
2018-12-27T16:44:48.383Z,4.25
2018-12-27T16:47:25.967Z,4.14
2018-12-27T16:49:54.990Z,4.10
2018-12-27T16:52:23.918Z,4.10
2018-12-27T16:54:52.702Z,4.09
2018-12-27T16:57:22.075Z,4.10
2018-12-27T16:59:59.196Z,4.10
2018-12-27T17:02:28.039Z,4.09
2018-12-27T17:04:56.867Z,4.08
2018-12-27T17:07:25.663Z,3.99
2018-12-27T17:09:54.451Z,3.93
2018-12-27T17:12:23.976Z,3.84
2018-12-27T17:14:52.758Z,3.82
2018-12-27T17:17:21.543Z,3.79
2018-12-27T17:19:50.326Z,3.78
2018-12-27T17:22:19.315Z,3.75
2018-12-27T17:24:48.476Z,3.72
2018-12-27T17:27:18.757Z,3.66
2018-12-27T17:29:48.115Z,3.64
2018-12-27T17:32:16.986Z,3.62
2018-12-27T17:34:45.835Z,3.60
2018-12-27T17:37:15.230Z,3.59
2018-12-27T17:39:44.492Z,3.59
2018-12-27T17:42:13.401Z,3.56
2018-12-27T17:44:42.195Z,3.56
2018-12-27T17:47:12.378Z,3.46
2018-12-27T17:49:41.286Z,3.31
2018-12-27T17:52:10.200Z,3.25
2018-12-27T17:54:39.026Z,3.25
2018-12-27T17:57:07.849Z,3.27
2018-12-27T17:59:37.972Z,3.29
2018-12-27T18:02:06.747Z,3.30
2018-12-27T18:04:35.538Z,3.31
2018-12-27T18:07:04.323Z,3.33
2018-12-27T18:09:34.359Z,3.35
2018-12-27T18:12:03.147Z,3.36
2018-12-27T18:14:32.051Z,3.35
2018-12-27T18:17:01.586Z,3.33
2018-12-27T18:19:30.342Z,3.32
2018-12-27T18:21:59.127Z,3.32
2018-12-27T18:24:28.666Z,3.31
2018-12-27T18:26:57.448Z,3.31
2018-12-27T18:29:26.315Z,3.31
2018-12-27T18:31:55.121Z,3.30
2018-12-27T18:34:24.942Z,3.29
2018-12-27T18:36:54.114Z,3.28
2018-12-27T18:39:22.914Z,3.27
2018-12-27T18:41:51.784Z,3.24
2018-12-27T18:44:21.195Z,3.24
2018-12-27T18:46:50.008Z,3.21
2018-12-27T18:49:20.699Z,3.17
2018-12-27T18:51:48.815Z,3.13
2018-12-27T18:54:17.690Z,3.00
2018-12-27T18:56:46.476Z,2.94
2018-12-27T18:59:15.815Z,2.93
2018-12-27T19:01:45.345Z,2.91
2018-12-27T19:04:14.639Z,2.91
2018-12-27T19:06:43.430Z,2.88
2018-12-27T19:09:12.999Z,2.87
2018-12-27T19:11:53.298Z,2.86
2018-12-27T19:14:22.475Z,2.85
2018-12-27T19:16:52.141Z,2.85
2018-12-27T19:19:20.908Z,2.84
2018-12-27T19:22:16.812Z,2.83
2018-12-27T19:24:45.731Z,2.78
2018-12-27T19:27:14.717Z,2.73
2018-12-27T19:29:43.638Z,2.73
2018-12-27T19:32:12.528Z,2.74
2018-12-27T19:34:41.391Z,2.73
2018-12-27T19:37:10.286Z,2.73
2018-12-27T19:39:39.097Z,2.73
2018-12-27T19:42:07.886Z,2.74
2018-12-27T19:44:36.684Z,2.74
2018-12-27T19:47:05.463Z,2.75
2018-12-27T19:49:34.311Z,2.75
2018-12-27T19:52:03.243Z,2.73
2018-12-27T19:54:32.410Z,2.72
2018-12-27T19:57:01.236Z,2.71
2018-12-27T19:59:30.939Z,2.72
2018-12-27T20:01:59.705Z,2.66
2018-12-27T20:04:28.579Z,2.63
2018-12-27T20:06:57.424Z,2.63
2018-12-27T20:09:26.507Z,2.59
2018-12-27T20:11:55.264Z,2.56
2018-12-27T20:14:24.055Z,2.54
2018-12-27T20:16:52.849Z,2.55
2018-12-27T20:19:21.995Z,2.58
2018-12-27T20:21:50.771Z,2.59
2018-12-27T20:24:19.571Z,2.60
2018-12-27T20:26:48.396Z,2.60
2018-12-27T20:29:18.336Z,2.61
2018-12-27T20:31:47.143Z,2.61
2018-12-27T20:34:16.522Z,2.61
2018-12-27T20:36:45.320Z,2.59
2018-12-27T20:39:14.308Z,2.55
2018-12-27T20:41:43.149Z,2.48
2018-12-27T20:44:12.912Z,2.41
2018-12-27T20:46:41.724Z,2.32
2018-12-27T20:49:10.579Z,2.26
2018-12-27T20:51:39.359Z,2.26
2018-12-27T20:54:08.161Z,2.27
2018-12-27T20:56:36.948Z,2.26
2018-12-27T20:59:05.846Z,2.24
2018-12-27T21:01:34.639Z,2.23
2018-12-27T21:04:04.132Z,2.22
2018-12-27T21:06:32.924Z,2.21
2018-12-27T21:09:01.768Z,2.21
2018-12-27T21:11:30.562Z,2.20
2018-12-27T21:13:59.446Z,2.18
2018-12-27T21:16:28.847Z,2.16
2018-12-27T21:18:58.195Z,2.14
2018-12-27T21:21:27.039Z,2.12
2018-12-27T21:23:55.820Z,2.10
2018-12-27T21:26:25.783Z,2.08
2018-12-27T21:28:54.571Z,2.05
2018-12-27T21:31:23.367Z,2.03
2018-12-27T21:33:52.149Z,2.00
2018-12-27T21:36:21.820Z,1.98
2018-12-27T21:38:50.614Z,1.96
2018-12-27T21:41:19.610Z,1.93
2018-12-27T21:43:48.730Z,1.92
2018-12-27T21:46:17.599Z,1.90
2018-12-27T21:48:46.429Z,1.90
2018-12-27T21:51:15.259Z,1.87
2018-12-27T21:53:44.711Z,1.86
2018-12-27T21:56:13.540Z,1.84
2018-12-27T21:58:42.352Z,1.83
2018-12-27T22:01:12.366Z,1.83
2018-12-27T22:03:42.734Z,1.82
2018-12-27T22:06:11.618Z,1.81
2018-12-27T22:08:40.399Z,1.80
2018-12-27T22:11:09.658Z,1.79
2018-12-27T22:13:39.291Z,1.78
2018-12-27T22:16:08.217Z,1.77
2018-12-27T22:18:37.041Z,1.75
2018-12-27T22:21:06.965Z,1.75
2018-12-27T22:23:35.752Z,1.74
2018-12-27T22:26:05.196Z,1.73
2018-12-27T22:28:33.975Z,1.71
2018-12-27T22:31:02.879Z,1.68
2018-12-27T22:33:32.251Z,1.67
2018-12-27T22:36:01.305Z,1.65
2018-12-27T22:38:35.610Z,1.64
2018-12-27T22:40:58.978Z,1.64
2018-12-27T22:43:29.615Z,1.62
2018-12-27T22:45:58.939Z,1.62
2018-12-27T22:48:27.726Z,1.59
2018-12-27T22:50:57.189Z,1.56
2018-12-27T22:53:25.953Z,1.56
2018-12-27T22:55:56.726Z,1.53
2018-12-27T22:58:26.944Z,1.47
2018-12-27T23:00:57.235Z,1.42
2018-12-27T23:03:26.047Z,1.36
2018-12-27T23:05:54.898Z,1.35
2018-12-27T23:08:24.368Z,1.35
2018-12-27T23:10:53.173Z,1.34
2018-12-27T23:13:22.061Z,1.27
2018-12-27T23:15:51.488Z,1.19
2018-12-27T23:18:21.226Z,1.16
2018-12-27T23:20:50.057Z,1.15
2018-12-27T23:23:18.959Z,1.15
2018-12-27T23:25:48.768Z,1.12
2018-12-27T23:28:18.093Z,1.11
2018-12-27T23:30:46.885Z,1.09
2018-12-27T23:33:15.669Z,1.05
2018-12-27T23:35:44.503Z,1.01
2018-12-27T23:38:13.283Z,0.95
2018-12-27T23:40:42.179Z,0.86
2018-12-27T23:43:11.003Z,0.84
2018-12-27T23:45:39.787Z,0.82
2018-12-27T23:48:08.687Z,0.80
2018-12-27T23:50:37.459Z,0.78
2018-12-27T23:53:06.386Z,0.76
2018-12-27T23:55:36.178Z,0.75
2018-12-27T23:58:05.596Z,0.70
